Latest Coastal Weather Observations for Alva Beach

IDQ60701

Issued at 10:51 pm EST Tuesday 30 May 2017 (issued every 10 minutes, with the page automatically refreshed every 10 minutes)

About coastal observations | Map of coastal stations | Coastal observations for QLD | Marine services | Other Formats
Station Details ID: 033295 Name: ALVA BEACH Lat: -19.46 Lon: 147.48 Height: 7.5 m
Data from the previous 72 hours. | See also: Recent months at Alva Beach
Date/Time
EST
Temp
°C
Wind Pressure Rain since
9am
mm
Weather Cloud Vis
km
Sea
Height
m
Swell
Dir  Spd
kts
Gust
kts
hPa Trend Height
m
Period
s
Dir
30/10:30pm 22.8 ESE 10 16 1019.1 - 0.0 - - - - - - -
30/10:00pm 22.1 SSE 5 8 1019.2 - 0.0 - - - - - - -
30/09:30pm 22.1 SSE 5 7 1019.0 - 0.0 - - - - - - -
30/09:00pm 22.5 SSE 4 8 1019.1 - 0.0 - - - - - - -
30/08:30pm 23.1 SSE 5 9 1019.0 - 0.0 - - - - - - -
30/08:00pm 23.5 SE 7 11 1018.8 - 0.0 - - - - - - -
30/07:30pm 23.4 ESE 7 10 1018.6 - 0.0 - - - - - - -
30/07:00pm 23.4 ESE 8 12 1018.4 - 0.0 - - - - - - -
30/06:30pm 23.6 ESE 7 11 1018.0 - 0.0 - - - - - - -
30/06:00pm 23.5 ESE 7 12 1017.5 - 0.0 - - - - - - -
30/05:30pm 23.7 ESE 8 14 1017.4 - 0.0 - - - - - - -
30/05:00pm 24.0 ESE 8 15 1017.3 - 0.0 - - - - - - -
30/04:30pm 24.2 ESE 8 13 1017.4 - 0.0 - - - - - - -
30/04:00pm 24.5 ESE 9 15 1017.4 - 0.0 - - - - - - -
30/03:30pm 24.7 ESE 8 12 1017.4 - 0.0 - - - - - - -
30/03:00pm 25.1 ESE 9 13 1017.4 - 0.0 - - - - - - -
30/02:30pm 24.9 ESE 9 13 1017.5 - 0.0 - - - - - - -
30/02:00pm 25.2 ESE 9 15 1017.6 - 0.0 - - - - - - -
30/01:30pm 25.9 ESE 8 16 1018.0 - 0.0 - - - - - - -
30/01:00pm 25.3 ESE 10 15 1018.2 - 0.0 - - - - - - -
30/12:30pm 25.7 ESE 9 15 1018.5 - 0.0 - - - - - - -
30/12:00pm 24.7 SE 9 13 1018.4 - 0.0 - - - - - - -
30/11:30am 24.9 SE 9 14 1018.5 - 0.0 - - - - - - -
30/11:00am 25.1 SE 8 13 1019.0 - 0.0 - - - - - - -
30/10:30am 24.2 SE 9 13 1018.7 - 0.0 - - - - - - -
30/10:00am 23.6 SE 7 12 1019.0 - 0.0 - - - - - - -
30/09:30am 22.7 SSE 5 8 1018.9 - 0.0 - - - - - - -
30/09:00am 21.9 S 4 6 1018.9 - 0.2 - - - - - - -
30/08:30am 21.0 S 3 5 1018.6 - 0.2 - - - - - - -
30/08:00am 19.6 S 5 7 1018.7 - 0.2 - - - - - - -
30/07:30am 19.0 S 5 7 1018.5 - 0.2 - - - - - - -
30/07:00am 18.6 S 5 6 1018.1 - 0.2 - - - - - - -
30/06:30am 18.6 S 4 6 1017.7 - 0.2 - - - - - - -
30/06:00am 18.4 S 3 5 1017.7 - 0.2 - - - - - - -
30/05:30am 18.6 S 4 6 1017.7 - 0.2 - - - - - - -
30/05:00am 18.7 S 5 7 1017.4 - 0.2 - - - - - - -
30/04:30am 18.7 S 5 6 1017.3 - 0.2 - - - - - - -
30/04:00am 18.9 SSE 5 7 1017.2 - 0.2 - - - - - - -
30/03:30am 19.7 SSE 4 7 1017.5 - 0.2 - - - - - - -
30/03:00am 20.7 SE 4 6 1017.3 - 0.2 - - - - - - -
30/02:30am 22.1 ESE 6 11 1017.5 - 0.2 - - - - - - -
30/02:00am 22.6 ESE 7 11 1017.7 - 0.2 - - - - - - -
30/01:30am 22.6 ESE 7 12 1018.1 - 0.2 - - - - - - -
30/01:00am 22.6 ESE 7 11 1018.0 - 0.2 - - - - - - -
30/12:30am 22.5 ESE 8 13 1018.4 - 0.2 - - - - - - -
30/12:00am 22.6 ESE 8 12 1018.4 - 0.2 - - - - - - -
 
Date/Time
EST
Temp
°C
Wind Pressure Rain since
9am
mm
Weather Cloud Vis
km
Sea
Height
m
Swell
Dir  Spd
kts
Gust
kts
hPa Trend Height
m
Period
s
Dir
29/11:30pm 22.5 ESE 8 12 1018.5 - 0.2 - - - - - - -
29/11:00pm 22.8 ESE 7 11 1018.7 - 0.2 - - - - - - -
29/10:30pm 22.5 ESE 7 12 1018.9 - 0.2 - - - - - - -
29/10:00pm 21.7 SE 4 8 1018.8 - 0.2 - - - - - - -
29/09:30pm 21.1 SE 3 5 1018.5 - 0.2 - - - - - - -
29/09:00pm 20.9 SE 3 4 1018.4 - 0.2 - - - - - - -
29/08:30pm 21.2 SE 3 4 1018.3 - 0.2 - - - - - - -
29/08:00pm 21.6 SE 3 4 1018.2 - 0.2 - - - - - - -
29/07:30pm 22.8 SE 5 8 1018.2 - 0.2 - - - - - - -
29/07:00pm 22.8 ESE 5 6 1017.4 - 0.2 - - - - - - -
29/06:30pm 22.7 E 5 7 1017.3 - 0.2 - - - - - - -
29/06:00pm 22.9 E 5 7 1017.3 - 0.2 - - - - - - -
29/05:30pm 23.1 ESE 5 7 1016.9 - 0.2 - - - - - - -
29/05:00pm 23.5 SE 5 7 1016.5 - 0.2 - - - - - - -
29/04:30pm 24.2 ESE 5 7 1016.3 - 0.2 - - - - - - -
29/04:00pm 24.5 ESE 5 9 1016.2 - 0.2 - - - - - - -
29/03:30pm 24.3 E 7 10 1016.2 - 0.2 - - - - - - -
29/03:00pm 24.5 E 8 11 1016.3 - 0.2 - - - - - - -
29/02:30pm 24.5 ENE 10 13 1016.4 - 0.2 - - - - - - -
29/02:00pm 24.5 E 9 12 1016.4 - 0.2 - - - - - - -
29/01:30pm 24.8 E 7 11 1016.8 - 0.2 - - - - - - -
29/01:00pm 25.3 E 7 11 1016.9 - 0.2 - - - - - - -
29/12:30pm 24.3 ESE 7 10 1017.4 - 0.2 - - - - - - -
29/12:00pm 25.2 ESE 6 9 1018.0 - 0.2 - - - - - - -
29/11:30am 25.4 ESE 7 12 1018.1 - 0.2 - - - - - - -
29/11:00am 24.9 ESE 7 11 1018.4 - 0.2 - - - - - - -
29/10:30am 25.0 ESE 6 10 1018.9 - 0.2 - - - - - - -
29/10:00am 24.6 SE 6 9 1019.2 - 0.2 - - - - - - -
29/09:30am 23.4 S 4 7 1019.1 - 0.0 - - - - - - -
29/09:00am 22.0 S 3 5 1018.9 - 0.0 - - - - - - -
29/08:30am 20.7 S 5 6 1018.5 - 0.0 - - - - - - -
29/08:00am 19.3 S 6 9 1018.3 - 0.0 - - - - - - -
29/07:30am 18.2 S 4 6 1018.1 - 0.0 - - - - - - -
29/07:00am 17.2 S 5 6 1017.8 - 0.0 - - - - - - -
29/06:30am 17.2 S 4 6 1017.3 - 0.0 - - - - - - -
29/06:00am 17.4 S 4 6 1016.9 - 0.0 - - - - - - -
29/05:30am 17.6 S 5 6 1017.1 - 0.0 - - - - - - -
29/05:00am 17.9 S 4 6 1016.6 - 0.0 - - - - - - -
29/04:30am 18.0 SSW 4 5 1016.4 - 0.0 - - - - - - -
29/04:00am 18.3 SSW 4 5 1016.5 - 0.0 - - - - - - -
29/03:30am 18.4 SSW 4 5 1016.8 - 0.0 - - - - - - -
29/03:00am 18.7 SSW 4 5 1016.9 - 0.0 - - - - - - -
29/02:30am 18.7 SSW 5 6 1017.0 - 0.0 - - - - - - -
29/02:00am 18.8 SSW 5 6 1017.0 - 0.0 - - - - - - -
29/01:30am 18.9 SSW 4 5 1017.4 - 0.0 - - - - - - -
29/01:00am 19.3 SSW 4 5 1017.6 - 0.0 - - - - - - -
29/12:30am 19.5 SSW 4 5 1017.8 - 0.0 - - - - - - -
29/12:00am 20.1 SSE 3 7 1017.8 - 0.0 - - - - - - -
 
Date/Time
EST
Temp
°C
Wind Pressure Rain since
9am
mm
Weather Cloud Vis
km
Sea
Height
m
Swell
Dir  Spd
kts
Gust
kts
hPa Trend Height
m
Period
s
Dir
28/11:30pm 23.0 E 6 9 1017.9 - 0.0 - - - - - - -
28/11:00pm 23.4 E 7 11 1018.0 - 0.0 - - - - - - -
28/10:30pm 23.5 E 9 13 1018.0 - 0.0 - - - - - - -
28/10:00pm 23.6 E 9 12 1018.2 - 0.0 - - - - - - -
28/09:30pm 23.4 E 9 13 1017.9 - 0.0 - - - - - - -
28/09:00pm 23.5 E 10 13 1017.7 - 0.0 - - - - - - -
28/08:30pm 23.5 E 10 13 1017.5 - 0.0 - - - - - - -
28/08:00pm 23.5 E 10 12 1017.2 - 0.0 - - - - - - -
28/07:30pm 23.5 E 9 11 1016.9 - 0.0 - - - - - - -
28/07:00pm 23.4 ENE 9 12 1016.5 - 0.0 - - - - - - -
28/06:30pm 23.4 ENE 10 12 1016.2 - 0.0 - - - - - - -
28/06:00pm 23.4 ENE 10 12 1015.9 - 0.0 - - - - - - -
28/05:30pm 23.5 ENE 10 12 1015.5 - 0.0 - - - - - - -
28/05:00pm 23.7 ENE 10 13 1015.2 - 0.0 - - - - - - -
28/04:30pm 24.1 ENE 10 13 1015.0 - 0.0 - - - - - - -
28/04:00pm 24.5 ENE 9 12 1015.1 - 0.0 - - - - - - -
28/03:30pm 24.7 E 9 12 1015.0 - 0.0 - - - - - - -
28/03:00pm 24.8 ENE 10 13 1015.2 - 0.0 - - - - - - -
28/02:30pm 24.8 E 9 12 1015.3 - 0.0 - - - - - - -
28/02:00pm 24.8 E 8 11 1015.6 - 0.0 - - - - - - -
28/01:30pm 24.8 E 7 11 1015.8 - 0.0 - - - - - - -
28/01:00pm 25.9 ESE 6 10 1016.0 - 0.0 - - - - - - -
28/12:30pm 26.2 ESE 6 10 1016.6 - 0.0 - - - - - - -
28/12:00pm 25.6 ESE 7 11 1016.9 - 0.0 - - - - - - -
28/11:30am 25.2 ESE 7 11 1017.1 - 0.0 - - - - - - -
28/11:00am 24.8 ESE 7 11 1017.4 - 0.0 - - - - - - -
28/10:30am 24.5 SE 6 9 1017.7 - 0.0 - - - - - - -
28/10:00am 24.3 SE 6 10 1017.8 - 0.0 - - - - - - -
28/09:30am 23.7 SE 5 8 1017.8 - 0.0 - - - - - - -
28/09:00am 22.1 S 5 7 1017.6 - 0.0 - - - - - - -
28/08:30am 20.8 S 5 9 1017.5 - 0.0 - - - - - - -
28/08:00am 19.4 SSW 5 8 1017.3 - 0.0 - - - - - - -
28/07:30am 18.3 S 5 6 1017.1 - 0.0 - - - - - - -
28/07:00am 17.5 S 4 5 1016.7 - 0.0 - - - - - - -
28/06:30am 17.3 S 5 6 1016.4 - 0.0 - - - - - - -
28/06:00am 17.7 S 5 6 1016.4 - 0.0 - - - - - - -
28/05:30am 17.9 S 5 7 1016.3 - 0.0 - - - - - - -
28/05:00am 18.1 S 5 7 1016.3 - 0.0 - - - - - - -
28/04:30am 18.2 S 5 7 1016.3 - 0.0 - - - - - - -
28/04:00am 18.4 SSE 5 6 1016.4 - 0.0 - - - - - - -
28/03:30am 18.5 SSE 5 7 1016.5 - 0.0 - - - - - - -
28/03:00am 18.6 SSE 4 7 1016.8 - 0.0 - - - - - - -
28/02:30am 18.9 SSE 4 5 1017.0 - 0.0 - - - - - - -
28/02:00am 19.7 SSE 4 7 1017.3 - 0.0 - - - - - - -
28/01:30am 20.5 SE 5 8 1017.6 - 0.0 - - - - - - -
28/01:00am 22.2 SE 7 11 1017.8 - 0.0 - - - - - - -
28/12:30am 22.3 ESE 7 11 1017.8 - 0.0 - - - - - - -
28/12:00am 22.5 ESE 8 13 1017.8 - 0.0 - - - - - - -
 
Date/Time
EST
Temp
°C
Wind Pressure Rain since
9am
mm
Weather Cloud Vis
km
Sea
Height
m
Swell
Dir  Spd
kts
Gust
kts
hPa Trend Height
m
Period
s
Dir
27/11:30pm 22.7 ESE 8 12 1018.0 - 0.0 - - - - - - -
27/11:00pm 23.0 ESE 7 11 1018.1 - 0.0 - - - - - - -

Other Formats:

Comma delimited format used in spreadsheet applications
http://www.bom.gov.au/fwo/IDQ60701/IDQ60701.95296.axf

JavaScript Object Notation format (JSON) in row-major order
http://www.bom.gov.au/fwo/IDQ60701/IDQ60701.95296.json